sensor_id;sensor_type;location;lat;lon;timestamp;pressure;altitude;pressure_sealevel;temperature;humidity
79457;BME280;69494;43.654;3.884;2023-05-07T00:01:03;101308.25;;;16.12;82.89
79457;BME280;69494;43.654;3.884;2023-05-07T00:03:31;101314.06;;;16.23;82.73
79457;BME280;69494;43.654;3.884;2023-05-07T00:05:56;101315.91;;;16.19;82.33
79457;BME280;69494;43.654;3.884;2023-05-07T00:08:22;101324.41;;;15.95;83.06
79457;BME280;69494;43.654;3.884;2023-05-07T00:10:47;101327.84;;;15.97;82.98
79457;BME280;69494;43.654;3.884;2023-05-07T00:13:13;101310.69;;;15.85;83.64
79457;BME280;69494;43.654;3.884;2023-05-07T00:15:38;101297.53;;;15.88;83.49
79457;BME280;69494;43.654;3.884;2023-05-07T00:18:04;101284.06;;;16.00;82.60
79457;BME280;69494;43.654;3.884;2023-05-07T00:20:29;101288.38;;;16.03;82.45
79457;BME280;69494;43.654;3.884;2023-05-07T00:22:55;101290.09;;;16.04;81.65
79457;BME280;69494;43.654;3.884;2023-05-07T00:25:20;101293.56;;;16.06;82.10
79457;BME280;69494;43.654;3.884;2023-05-07T00:27:46;101283.97;;;16.05;81.76
79457;BME280;69494;43.654;3.884;2023-05-07T00:30:11;101273.31;;;16.11;81.74
79457;BME280;69494;43.654;3.884;2023-05-07T00:32:38;101270.91;;;16.04;81.89
79457;BME280;69494;43.654;3.884;2023-05-07T00:35:04;101274.53;;;15.98;82.45
79457;BME280;69494;43.654;3.884;2023-05-07T00:37:30;101264.91;;;15.98;82.95
79457;BME280;69494;43.654;3.884;2023-05-07T00:39:55;101261.22;;;16.06;82.84
79457;BME280;69494;43.654;3.884;2023-05-07T00:42:21;101264.78;;;16.05;83.38
79457;BME280;69494;43.654;3.884;2023-05-07T00:44:46;101287.53;;;16.03;83.29
79457;BME280;69494;43.654;3.884;2023-05-07T00:47:12;101300.31;;;15.80;83.54
79457;BME280;69494;43.654;3.884;2023-05-07T00:49:41;101294.97;;;15.85;83.71
79457;BME280;69494;43.654;3.884;2023-05-07T00:52:09;101299.16;;;15.92;83.13
79457;BME280;69494;43.654;3.884;2023-05-07T00:54:36;101307.38;;;15.77;83.62
79457;BME280;69494;43.654;3.884;2023-05-07T00:57:02;101307.81;;;15.94;83.15
79457;BME280;69494;43.654;3.884;2023-05-07T00:59:29;101313.84;;;15.98;82.61
79457;BME280;69494;43.654;3.884;2023-05-07T01:01:55;101315.06;;;16.19;81.92
79457;BME280;69494;43.654;3.884;2023-05-07T01:04:20;101316.16;;;16.10;81.97
79457;BME280;69494;43.654;3.884;2023-05-07T01:06:46;101313.03;;;16.29;81.29
79457;BME280;69494;43.654;3.884;2023-05-07T01:09:12;101324.28;;;16.32;80.56
79457;BME280;69494;43.654;3.884;2023-05-07T01:11:38;101326.13;;;16.29;81.32
79457;BME280;69494;43.654;3.884;2023-05-07T01:14:04;101327.00;;;16.29;80.96
79457;BME280;69494;43.654;3.884;2023-05-07T01:16:30;101317.06;;;16.08;81.67
79457;BME280;69494;43.654;3.884;2023-05-07T01:18:56;101323.44;;;16.32;81.22
79457;BME280;69494;43.654;3.884;2023-05-07T01:21:26;101319.97;;;16.31;81.03
79457;BME280;69494;43.654;3.884;2023-05-07T01:23:52;101319.09;;;16.31;79.86
79457;BME280;69494;43.654;3.884;2023-05-07T01:26:18;101308.78;;;16.25;81.01
79457;BME280;69494;43.654;3.884;2023-05-07T01:28:45;101312.72;;;16.08;81.04
79457;BME280;69494;43.654;3.884;2023-05-07T01:31:12;101316.28;;;16.04;81.25
79457;BME280;69494;43.654;3.884;2023-05-07T01:33:40;101315.59;;;15.99;80.88
79457;BME280;69494;43.654;3.884;2023-05-07T01:36:07;101299.41;;;15.81;82.65
79457;BME280;69494;43.654;3.884;2023-05-07T01:38:33;101310.50;;;15.91;82.01
79457;BME280;69494;43.654;3.884;2023-05-07T01:40:59;101302.69;;;15.90;82.07
79457;BME280;69494;43.654;3.884;2023-05-07T01:43:25;101301.69;;;15.95;82.03
79457;BME280;69494;43.654;3.884;2023-05-07T01:45:51;101301.28;;;16.11;80.76
79457;BME280;69494;43.654;3.884;2023-05-07T01:48:18;101295.13;;;16.13;81.47
79457;BME280;69494;43.654;3.884;2023-05-07T01:50:44;101289.97;;;16.09;81.50
79457;BME280;69494;43.654;3.884;2023-05-07T01:53:09;101301.34;;;16.08;81.82
79457;BME280;69494;43.654;3.884;2023-05-07T01:55:35;101306.38;;;16.17;81.54
79457;BME280;69494;43.654;3.884;2023-05-07T01:58:02;101306.44;;;16.14;81.84
79457;BME280;69494;43.654;3.884;2023-05-07T02:00:27;101314.28;;;16.15;81.47
79457;BME280;69494;43.654;3.884;2023-05-07T02:02:54;101310.72;;;16.16;81.87
79457;BME280;69494;43.654;3.884;2023-05-07T02:05:19;101325.72;;;16.11;81.77
79457;BME280;69494;43.654;3.884;2023-05-07T02:07:45;101320.47;;;16.11;81.68
79457;BME280;69494;43.654;3.884;2023-05-07T02:10:10;101322.13;;;16.15;81.44
79457;BME280;69494;43.654;3.884;2023-05-07T02:12:36;101317.81;;;16.13;81.96
79457;BME280;69494;43.654;3.884;2023-05-07T02:15:01;101325.56;;;15.85;83.01
79457;BME280;69494;43.654;3.884;2023-05-07T02:17:27;101329.94;;;15.82;83.08
79457;BME280;69494;43.654;3.884;2023-05-07T02:19:52;101333.72;;;16.07;82.15
79457;BME280;69494;43.654;3.884;2023-05-07T02:22:18;101331.34;;;15.97;81.99
79457;BME280;69494;43.654;3.884;2023-05-07T02:24:43;101321.31;;;16.13;80.97
79457;BME280;69494;43.654;3.884;2023-05-07T02:27:09;101318.97;;;16.03;81.39
79457;BME280;69494;43.654;3.884;2023-05-07T02:29:35;101324.38;;;15.96;81.64
79457;BME280;69494;43.654;3.884;2023-05-07T02:32:00;101318.06;;;16.04;81.05
79457;BME280;69494;43.654;3.884;2023-05-07T02:34:26;101322.28;;;16.09;80.55
79457;BME280;69494;43.654;3.884;2023-05-07T02:36:52;101315.44;;;16.04;80.81
79457;BME280;69494;43.654;3.884;2023-05-07T02:39:17;101316.84;;;16.17;80.16
79457;BME280;69494;43.654;3.884;2023-05-07T02:41:43;101324.72;;;16.17;79.90
79457;BME280;69494;43.654;3.884;2023-05-07T02:44:08;101327.34;;;16.17;79.95
79457;BME280;69494;43.654;3.884;2023-05-07T02:46:34;101323.75;;;16.19;79.95
79457;BME280;69494;43.654;3.884;2023-05-07T02:48:59;101321.91;;;16.23;80.11
79457;BME280;69494;43.654;3.884;2023-05-07T02:51:25;101315.94;;;16.18;80.25
79457;BME280;69494;43.654;3.884;2023-05-07T02:53:51;101322.69;;;16.27;79.18
79457;BME280;69494;43.654;3.884;2023-05-07T02:56:16;101321.03;;;16.24;79.31
79457;BME280;69494;43.654;3.884;2023-05-07T02:58:42;101323.88;;;16.15;80.43
79457;BME280;69494;43.654;3.884;2023-05-07T03:01:08;101310.63;;;16.21;79.86
79457;BME280;69494;43.654;3.884;2023-05-07T03:03:34;101308.25;;;16.12;79.85
79457;BME280;69494;43.654;3.884;2023-05-07T03:06:00;101310.84;;;16.13;79.61
79457;BME280;69494;43.654;3.884;2023-05-07T03:08:25;101308.28;;;16.10;80.17
79457;BME280;69494;43.654;3.884;2023-05-07T03:10:51;101305.53;;;16.15;80.00
79457;BME280;69494;43.654;3.884;2023-05-07T03:13:16;101306.47;;;16.12;79.57
79457;BME280;69494;43.654;3.884;2023-05-07T03:15:42;101305.69;;;16.09;80.11
79457;BME280;69494;43.654;3.884;2023-05-07T03:18:07;101312.69;;;16.10;80.22
79457;BME280;69494;43.654;3.884;2023-05-07T03:20:33;101302.97;;;16.13;79.75
79457;BME280;69494;43.654;3.884;2023-05-07T03:22:58;101300.25;;;16.16;79.95
79457;BME280;69494;43.654;3.884;2023-05-07T03:25:23;101304.66;;;16.16;80.05
79457;BME280;69494;43.654;3.884;2023-05-07T03:27:49;101299.66;;;16.07;79.47
79457;BME280;69494;43.654;3.884;2023-05-07T03:30:14;101298.66;;;16.11;80.85
79457;BME280;69494;43.654;3.884;2023-05-07T03:32:40;101293.38;;;16.12;80.62
79457;BME280;69494;43.654;3.884;2023-05-07T03:35:06;101288.88;;;16.17;80.64
79457;BME280;69494;43.654;3.884;2023-05-07T03:37:31;101292.44;;;16.15;80.98
79457;BME280;69494;43.654;3.884;2023-05-07T03:39:57;101294.16;;;16.16;80.73
79457;BME280;69494;43.654;3.884;2023-05-07T03:42:22;101295.13;;;16.13;81.42
79457;BME280;69494;43.654;3.884;2023-05-07T03:44:47;101291.75;;;16.08;81.76
79457;BME280;69494;43.654;3.884;2023-05-07T03:47:13;101289.91;;;16.12;81.61
79457;BME280;69494;43.654;3.884;2023-05-07T03:49:39;101289.19;;;16.05;82.10
79457;BME280;69494;43.654;3.884;2023-05-07T03:52:05;101291.28;;;15.92;82.65
79457;BME280;69494;43.654;3.884;2023-05-07T03:54:30;101294.72;;;15.94;82.92
79457;BME280;69494;43.654;3.884;2023-05-07T03:56:55;101280.38;;;15.73;83.44
79457;BME280;69494;43.654;3.884;2023-05-07T03:59:21;101287.41;;;15.71;83.14
79457;BME280;69494;43.654;3.884;2023-05-07T04:01:47;101288.97;;;15.80;82.29
79457;BME280;69494;43.654;3.884;2023-05-07T04:04:14;101288.13;;;15.79;82.44
79457;BME280;69494;43.654;3.884;2023-05-07T04:06:39;101289.84;;;15.80;82.33
79457;BME280;69494;43.654;3.884;2023-05-07T04:09:05;101291.66;;;15.77;82.45
79457;BME280;69494;43.654;3.884;2023-05-07T04:11:31;101293.41;;;15.78;83.21
79457;BME280;69494;43.654;3.884;2023-05-07T04:13:56;101291.34;;;15.89;82.27
79457;BME280;69494;43.654;3.884;2023-05-07T04:16:22;101293.41;;;15.78;82.00
79457;BME280;69494;43.654;3.884;2023-05-07T04:18:47;101293.47;;;15.75;83.04
79457;BME280;69494;43.654;3.884;2023-05-07T04:21:20;101292.59;;;15.76;82.90
79457;BME280;69494;43.654;3.884;2023-05-07T04:23:47;101300.50;;;15.71;82.76
79457;BME280;69494;43.654;3.884;2023-05-07T04:26:12;101297.03;;;15.71;82.57
79457;BME280;69494;43.654;3.884;2023-05-07T04:28:38;101297.13;;;15.66;82.96
79457;BME280;69494;43.654;3.884;2023-05-07T04:31:04;101300.47;;;15.74;83.67
79457;BME280;69494;43.654;3.884;2023-05-07T04:33:30;101291.69;;;15.74;82.96
79457;BME280;69494;43.654;3.884;2023-05-07T04:35:56;101297.38;;;15.57;84.74
79457;BME280;69494;43.654;3.884;2023-05-07T04:38:22;101295.31;;;15.70;82.82
79457;BME280;69494;43.654;3.884;2023-05-07T04:40:48;101292.91;;;15.60;84.04
79457;BME280;69494;43.654;3.884;2023-05-07T04:43:14;101298.38;;;15.51;84.54
79457;BME280;69494;43.654;3.884;2023-05-07T04:45:39;101297.69;;;15.43;82.22
79457;BME280;69494;43.654;3.884;2023-05-07T04:48:06;101302.25;;;15.72;82.86
79457;BME280;69494;43.654;3.884;2023-05-07T04:50:31;101305.06;;;15.63;83.38
79457;BME280;69494;43.654;3.884;2023-05-07T04:52:57;101304.38;;;15.56;83.65
79457;BME280;69494;43.654;3.884;2023-05-07T04:55:22;101309.75;;;15.50;82.70
79457;BME280;69494;43.654;3.884;2023-05-07T04:57:48;101303.59;;;15.53;83.24
79457;BME280;69494;43.654;3.884;2023-05-07T05:00:14;101309.06;;;15.43;81.56
79457;BME280;69494;43.654;3.884;2023-05-07T05:02:40;101319.09;;;15.60;83.85
79457;BME280;69494;43.654;3.884;2023-05-07T05:05:06;101309.13;;;15.78;83.17
79457;BME280;69494;43.654;3.884;2023-05-07T05:07:32;101313.88;;;15.60;83.85
79457;BME280;69494;43.654;3.884;2023-05-07T05:09:57;101316.06;;;15.79;80.75
79457;BME280;69494;43.654;3.884;2023-05-07T05:12:23;101319.44;;;15.84;82.50
79457;BME280;69494;43.654;3.884;2023-05-07T05:14:48;101326.53;;;15.79;82.97
79457;BME280;69494;43.654;3.884;2023-05-07T05:17:14;101329.22;;;15.77;83.45
79457;BME280;69494;43.654;3.884;2023-05-07T05:19:39;101329.91;;;15.84;82.76
79457;BME280;69494;43.654;3.884;2023-05-07T05:22:05;101340.47;;;15.81;83.28
79457;BME280;69494;43.654;3.884;2023-05-07T05:24:31;101345.59;;;15.86;83.65
79457;BME280;69494;43.654;3.884;2023-05-07T05:26:56;101351.09;;;15.73;84.35
79457;BME280;69494;43.654;3.884;2023-05-07T05:29:22;101344.69;;;15.49;85.20
79457;BME280;69494;43.654;3.884;2023-05-07T05:31:47;101339.75;;;15.74;83.70
79457;BME280;69494;43.654;3.884;2023-05-07T05:34:13;101335.97;;;15.86;83.12
79457;BME280;69494;43.654;3.884;2023-05-07T05:36:38;101338.03;;;16.08;82.56
79457;BME280;69494;43.654;3.884;2023-05-07T05:39:04;101337.34;;;16.01;82.61
79457;BME280;69494;43.654;3.884;2023-05-07T05:41:29;101327.97;;;15.92;83.51
79457;BME280;69494;43.654;3.884;2023-05-07T05:43:55;101322.00;;;16.20;81.16
79457;BME280;69494;43.654;3.884;2023-05-07T05:46:21;101315.88;;;16.21;81.83
79457;BME280;69494;43.654;3.884;2023-05-07T05:48:46;101318.94;;;16.37;80.18
79457;BME280;69494;43.654;3.884;2023-05-07T05:51:12;101312.69;;;16.41;81.54
79457;BME280;69494;43.654;3.884;2023-05-07T05:53:37;101317.66;;;16.52;81.06
79457;BME280;69494;43.654;3.884;2023-05-07T05:56:03;101321.44;;;16.73;80.35
79457;BME280;69494;43.654;3.884;2023-05-07T05:58:29;101307.84;;;16.90;79.77
79457;BME280;69494;43.654;3.884;2023-05-07T06:00:54;101313.31;;;17.12;78.97
79457;BME280;69494;43.654;3.884;2023-05-07T06:03:20;101318.06;;;17.27;78.47
79457;BME280;69494;43.654;3.884;2023-05-07T06:05:45;101321.41;;;17.32;78.17
79457;BME280;69494;43.654;3.884;2023-05-07T06:08:11;101321.31;;;17.64;77.03
79457;BME280;69494;43.654;3.884;2023-05-07T06:10:37;101318.56;;;19.16;71.04
79457;BME280;69494;43.654;3.884;2023-05-07T06:13:02;101325.09;;;19.72;69.05
79457;BME280;69494;43.654;3.884;2023-05-07T06:15:28;101322.72;;;19.88;68.39
79457;BME280;69494;43.654;3.884;2023-05-07T06:17:53;101328.00;;;20.50;65.38
79457;BME280;69494;43.654;3.884;2023-05-07T06:20:20;101320.41;;;20.82;64.20
79457;BME280;69494;43.654;3.884;2023-05-07T06:22:46;101320.72;;;19.73;67.80
79457;BME280;69494;43.654;3.884;2023-05-07T06:25:11;101317.34;;;18.78;71.77
79457;BME280;69494;43.654;3.884;2023-05-07T06:27:37;101332.25;;;19.02;71.28
79457;BME280;69494;43.654;3.884;2023-05-07T06:30:02;101341.09;;;18.53;72.74
79457;BME280;69494;43.654;3.884;2023-05-07T06:32:28;101345.59;;;18.49;74.51
79457;BME280;69494;43.654;3.884;2023-05-07T06:34:53;101342.88;;;18.52;74.38
79457;BME280;69494;43.654;3.884;2023-05-07T06:37:19;101341.31;;;18.46;75.35
79457;BME280;69494;43.654;3.884;2023-05-07T06:39:44;101345.44;;;18.54;74.65
79457;BME280;69494;43.654;3.884;2023-05-07T06:42:09;101358.13;;;18.42;75.24
79457;BME280;69494;43.654;3.884;2023-05-07T06:44:35;101372.03;;;18.21;76.32
79457;BME280;69494;43.654;3.884;2023-05-07T06:47:00;101372.16;;;18.16;76.01
79457;BME280;69494;43.654;3.884;2023-05-07T06:49:26;101377.09;;;18.25;76.20
79457;BME280;69494;43.654;3.884;2023-05-07T06:51:51;101374.41;;;18.02;75.82
79457;BME280;69494;43.654;3.884;2023-05-07T06:54:17;101374.81;;;17.89;76.69
79457;BME280;69494;43.654;3.884;2023-05-07T06:56:43;101367.59;;;17.96;75.92
79457;BME280;69494;43.654;3.884;2023-05-07T06:59:09;101371.13;;;17.95;76.07
79457;BME280;69494;43.654;3.884;2023-05-07T07:01:34;101369.94;;;18.04;75.64
79457;BME280;69494;43.654;3.884;2023-05-07T07:04:00;101376.19;;;18.01;75.57
79457;BME280;69494;43.654;3.884;2023-05-07T07:06:25;101378.94;;;17.97;76.45
79457;BME280;69494;43.654;3.884;2023-05-07T07:08:51;101370.22;;;17.96;75.86
79457;BME280;69494;43.654;3.884;2023-05-07T07:11:16;101374.94;;;18.12;75.37
79457;BME280;69494;43.654;3.884;2023-05-07T07:13:41;101368.03;;;18.09;75.65
79457;BME280;69494;43.654;3.884;2023-05-07T07:16:08;101358.31;;;18.11;75.13
79457;BME280;69494;43.654;3.884;2023-05-07T07:18:33;101357.09;;;18.46;74.18
79457;BME280;69494;43.654;3.884;2023-05-07T07:20:59;101356.34;;;18.43;74.23
79457;BME280;69494;43.654;3.884;2023-05-07T07:23:25;101367.94;;;18.62;73.40
79457;BME280;69494;43.654;3.884;2023-05-07T07:25:50;101368.88;;;18.85;72.42
79457;BME280;69494;43.654;3.884;2023-05-07T07:28:16;101367.47;;;19.46;70.04
79457;BME280;69494;43.654;3.884;2023-05-07T07:30:42;101363.06;;;19.68;69.26
79457;BME280;69494;43.654;3.884;2023-05-07T07:33:07;101382.28;;;20.14;68.87
79457;BME280;69494;43.654;3.884;2023-05-07T07:35:33;101384.25;;;19.43;70.18
79457;BME280;69494;43.654;3.884;2023-05-07T07:37:58;101387.09;;;19.15;70.88
79457;BME280;69494;43.654;3.884;2023-05-07T07:40:24;101398.59;;;19.58;69.60
79457;BME280;69494;43.654;3.884;2023-05-07T07:42:50;101395.41;;;19.73;69.81
79457;BME280;69494;43.654;3.884;2023-05-07T07:45:16;101398.97;;;19.71;69.23
79457;BME280;69494;43.654;3.884;2023-05-07T07:47:41;101399.66;;;19.54;69.16
79457;BME280;69494;43.654;3.884;2023-05-07T07:50:07;101397.16;;;20.15;67.81
79457;BME280;69494;43.654;3.884;2023-05-07T07:52:33;101387.19;;;21.79;61.06
79457;BME280;69494;43.654;3.884;2023-05-07T07:54:59;101384.81;;;21.36;63.17
79457;BME280;69494;43.654;3.884;2023-05-07T07:57:24;101398.16;;;21.88;61.12
79457;BME280;69494;43.654;3.884;2023-05-07T07:59:50;101397.19;;;22.26;59.15
79457;BME280;69494;43.654;3.884;2023-05-07T08:02:16;101402.34;;;23.13;56.43
79457;BME280;69494;43.654;3.884;2023-05-07T08:04:41;101405.25;;;23.25;55.41
79457;BME280;69494;43.654;3.884;2023-05-07T08:07:09;101392.53;;;22.82;55.51
79457;BME280;69494;43.654;3.884;2023-05-07T08:09:34;101393.03;;;23.70;54.92
79457;BME280;69494;43.654;3.884;2023-05-07T08:12:00;101389.19;;;23.75;53.69
79457;BME280;69494;43.654;3.884;2023-05-07T08:14:26;101391.19;;;24.47;51.99
79457;BME280;69494;43.654;3.884;2023-05-07T08:16:53;101394.44;;;24.66;49.79
79457;BME280;69494;43.654;3.884;2023-05-07T08:19:19;101391.13;;;24.63;49.25
79457;BME280;69494;43.654;3.884;2023-05-07T08:21:44;101396.72;;;24.13;51.44
79457;BME280;69494;43.654;3.884;2023-05-07T08:24:10;101392.91;;;25.34;47.25
79457;BME280;69494;43.654;3.884;2023-05-07T08:26:36;101400.75;;;25.50;46.12
79457;BME280;69494;43.654;3.884;2023-05-07T08:29:04;101392.75;;;24.94;47.57
79457;BME280;69494;43.654;3.884;2023-05-07T08:31:29;101390.91;;;25.38;46.32
79457;BME280;69494;43.654;3.884;2023-05-07T08:33:55;101396.84;;;24.71;46.34
79457;BME280;69494;43.654;3.884;2023-05-07T08:36:20;101395.84;;;26.11;44.97
79457;BME280;69494;43.654;3.884;2023-05-07T08:38:46;101394.78;;;26.01;42.26
79457;BME280;69494;43.654;3.884;2023-05-07T08:41:11;101388.66;;;26.90;41.96
79457;BME280;69494;43.654;3.884;2023-05-07T08:43:38;101393.19;;;25.84;41.96
79457;BME280;69494;43.654;3.884;2023-05-07T08:46:06;101381.69;;;27.13;40.64
79457;BME280;69494;43.654;3.884;2023-05-07T08:48:34;101386.16;;;26.10;42.71
79457;BME280;69494;43.654;3.884;2023-05-07T08:51:00;101376.09;;;28.02;38.90
79457;BME280;69494;43.654;3.884;2023-05-07T08:53:26;101374.66;;;27.85;38.97
79457;BME280;69494;43.654;3.884;2023-05-07T08:55:52;101386.78;;;27.16;41.65
79457;BME280;69494;43.654;3.884;2023-05-07T08:58:18;101387.78;;;26.90;41.08
79457;BME280;69494;43.654;3.884;2023-05-07T09:00:43;101382.44;;;28.23;39.01
79457;BME280;69494;43.654;3.884;2023-05-07T09:03:09;101381.97;;;27.58;40.11
79457;BME280;69494;43.654;3.884;2023-05-07T09:05:37;101394.22;;;26.74;41.52
79457;BME280;69494;43.654;3.884;2023-05-07T09:08:03;101397.06;;;26.84;40.84
79457;BME280;69494;43.654;3.884;2023-05-07T09:10:29;101386.00;;;27.40;39.35
79457;BME280;69494;43.654;3.884;2023-05-07T09:12:57;101388.38;;;27.32;40.71
79457;BME280;69494;43.654;3.884;2023-05-07T09:15:22;101387.63;;;27.54;39.89
79457;BME280;69494;43.654;3.884;2023-05-07T09:17:48;101381.69;;;27.00;39.72
79457;BME280;69494;43.654;3.884;2023-05-07T09:20:13;101379.22;;;27.71;38.21
79457;BME280;69494;43.654;3.884;2023-05-07T09:22:39;101384.22;;;27.76;38.90
79457;BME280;69494;43.654;3.884;2023-05-07T09:25:06;101377.53;;;29.09;35.68
79457;BME280;69494;43.654;3.884;2023-05-07T09:27:32;101383.19;;;27.05;40.51
79457;BME280;69494;43.654;3.884;2023-05-07T09:29:58;101374.34;;;27.41;38.57
79457;BME280;69494;43.654;3.884;2023-05-07T09:32:25;101371.56;;;27.91;38.96
79457;BME280;69494;43.654;3.884;2023-05-07T09:34:50;101372.56;;;28.82;37.42
79457;BME280;69494;43.654;3.884;2023-05-07T09:37:16;101366.13;;;28.04;37.70
79457;BME280;69494;43.654;3.884;2023-05-07T09:39:43;101373.81;;;27.36;39.04
79457;BME280;69494;43.654;3.884;2023-05-07T09:42:09;101375.03;;;27.32;38.73
79457;BME280;69494;43.654;3.884;2023-05-07T09:44:35;101373.75;;;27.97;38.71
79457;BME280;69494;43.654;3.884;2023-05-07T09:47:01;101376.69;;;29.20;36.35
79457;BME280;69494;43.654;3.884;2023-05-07T09:49:30;101363.78;;;29.25;35.42
79457;BME280;69494;43.654;3.884;2023-05-07T09:51:55;101377.03;;;29.26;34.91
79457;BME280;69494;43.654;3.884;2023-05-07T09:54:22;101367.34;;;28.58;35.27
79457;BME280;69494;43.654;3.884;2023-05-07T09:56:51;101366.25;;;28.02;35.10
79457;BME280;69494;43.654;3.884;2023-05-07T09:59:17;101367.31;;;28.35;35.94
79457;BME280;69494;43.654;3.884;2023-05-07T10:01:44;101359.34;;;28.69;33.58
79457;BME280;69494;43.654;3.884;2023-05-07T10:04:10;101355.56;;;29.81;31.77
79457;BME280;69494;43.654;3.884;2023-05-07T10:06:37;101363.00;;;29.99;31.38
79457;BME280;69494;43.654;3.884;2023-05-07T10:09:03;101363.56;;;29.49;33.16
79457;BME280;69494;43.654;3.884;2023-05-07T10:11:32;101357.38;;;29.49;33.82
79457;BME280;69494;43.654;3.884;2023-05-07T10:13:58;101362.25;;;28.08;35.54
79457;BME280;69494;43.654;3.884;2023-05-07T10:16:25;101353.91;;;28.24;34.68
79457;BME280;69494;43.654;3.884;2023-05-07T10:18:50;101354.66;;;27.55;36.13
79457;BME280;69494;43.654;3.884;2023-05-07T10:21:18;101371.16;;;26.99;36.56
79457;BME280;69494;43.654;3.884;2023-05-07T10:23:50;101367.00;;;26.95;38.71
79457;BME280;69494;43.654;3.884;2023-05-07T10:26:17;101368.88;;;27.06;37.25
79457;BME280;69494;43.654;3.884;2023-05-07T10:28:46;101367.53;;;26.87;38.16
79457;BME280;69494;43.654;3.884;2023-05-07T10:31:39;101363.06;;;26.23;37.80
79457;BME280;69494;43.654;3.884;2023-05-07T10:34:11;101366.09;;;27.07;38.13
79457;BME280;69494;43.654;3.884;2023-05-07T10:36:38;101360.22;;;27.15;37.63
79457;BME280;69494;43.654;3.884;2023-05-07T10:39:05;101365.69;;;27.00;36.82
79457;BME280;69494;43.654;3.884;2023-05-07T10:41:31;101363.28;;;28.52;35.84
79457;BME280;69494;43.654;3.884;2023-05-07T10:43:57;101375.63;;;26.98;37.63
79457;BME280;69494;43.654;3.884;2023-05-07T10:46:22;101366.69;;;27.61;36.79
79457;BME280;69494;43.654;3.884;2023-05-07T10:51:26;101369.19;;;29.46;32.90
79457;BME280;69494;43.654;3.884;2023-05-07T10:56:44;101373.97;;;28.52;33.45
79457;BME280;69494;43.654;3.884;2023-05-07T10:59:37;101377.53;;;28.06;33.84
79457;BME280;69494;43.654;3.884;2023-05-07T11:02:06;101374.00;;;28.63;33.44
79457;BME280;69494;43.654;3.884;2023-05-07T11:04:34;101367.84;;;29.84;30.49
79457;BME280;69494;43.654;3.884;2023-05-07T11:15:11;101364.59;;;27.16;34.31
79457;BME280;69494;43.654;3.884;2023-05-07T11:17:57;101369.78;;;29.17;33.07
79457;BME280;69494;43.654;3.884;2023-05-07T11:20:54;101368.59;;;28.29;33.67
79457;BME280;69494;43.654;3.884;2023-05-07T11:26:04;101358.81;;;28.86;32.19
79457;BME280;69494;43.654;3.884;2023-05-07T11:28:30;101354.66;;;29.60;31.03
79457;BME280;69494;43.654;3.884;2023-05-07T11:30:57;101349.41;;;30.12;30.45
79457;BME280;69494;43.654;3.884;2023-05-07T11:33:23;101350.19;;;29.49;30.89
79457;BME280;69494;43.654;3.884;2023-05-07T11:35:54;101335.63;;;29.95;30.07
79457;BME280;69494;43.654;3.884;2023-05-07T11:38:20;101338.44;;;31.07;29.48
79457;BME280;69494;43.654;3.884;2023-05-07T11:40:56;101343.09;;;30.34;28.58
79457;BME280;69494;43.654;3.884;2023-05-07T11:43:25;101343.06;;;30.55;29.19
79457;BME280;69494;43.654;3.884;2023-05-07T11:45:50;101335.06;;;30.34;28.83
79457;BME280;69494;43.654;3.884;2023-05-07T11:48:16;101341.97;;;28.75;31.10
79457;BME280;69494;43.654;3.884;2023-05-07T11:50:50;101347.59;;;27.54;33.49
79457;BME280;69494;43.654;3.884;2023-05-07T11:53:16;101337.09;;;27.64;33.08
79457;BME280;69494;43.654;3.884;2023-05-07T11:55:42;101334.38;;;27.52;33.46
79457;BME280;69494;43.654;3.884;2023-05-07T11:58:11;101337.41;;;27.83;33.53
79457;BME280;69494;43.654;3.884;2023-05-07T12:00:37;101336.81;;;28.94;32.53
79457;BME280;69494;43.654;3.884;2023-05-07T12:03:05;101339.75;;;28.57;31.92
79457;BME280;69494;43.654;3.884;2023-05-07T12:05:31;101331.72;;;27.88;33.43
79457;BME280;69494;43.654;3.884;2023-05-07T12:07:59;101336.22;;;27.87;33.27
79457;BME280;69494;43.654;3.884;2023-05-07T12:10:25;101339.34;;;27.46;34.09
79457;BME280;69494;43.654;3.884;2023-05-07T12:12:50;101330.56;;;27.68;33.71
79457;BME280;69494;43.654;3.884;2023-05-07T12:15:17;101338.34;;;27.47;34.56
79457;BME280;69494;43.654;3.884;2023-05-07T12:17:43;101331.63;;;27.30;34.54
79457;BME280;69494;43.654;3.884;2023-05-07T12:20:09;101322.91;;;27.39;34.33
79457;BME280;69494;43.654;3.884;2023-05-07T12:22:35;101323.88;;;27.38;33.41
79457;BME280;69494;43.654;3.884;2023-05-07T12:25:01;101322.34;;;27.47;34.15
79457;BME280;69494;43.654;3.884;2023-05-07T12:27:28;101324.06;;;27.48;34.90
79457;BME280;69494;43.654;3.884;2023-05-07T12:29:53;101317.88;;;27.47;33.99
79457;BME280;69494;43.654;3.884;2023-05-07T12:32:20;101316.59;;;27.16;35.53
79457;BME280;69494;43.654;3.884;2023-05-07T12:34:49;101307.78;;;27.86;34.70
79457;BME280;69494;43.654;3.884;2023-05-07T12:37:14;101315.41;;;28.04;34.07
79457;BME280;69494;43.654;3.884;2023-05-07T12:40:03;101304.41;;;28.42;32.52
79457;BME280;69494;43.654;3.884;2023-05-07T12:42:33;101300.59;;;30.08;31.20
79457;BME280;69494;43.654;3.884;2023-05-07T12:45:00;101304.25;;;30.28;29.19
79457;BME280;69494;43.654;3.884;2023-05-07T12:47:32;101306.81;;;29.66;30.63
79457;BME280;69494;43.654;3.884;2023-05-07T12:49:59;101313.25;;;29.43;30.80
79457;BME280;69494;43.654;3.884;2023-05-07T12:52:24;101306.06;;;28.88;29.57
79457;BME280;69494;43.654;3.884;2023-05-07T12:54:50;101316.25;;;29.06;29.75
79457;BME280;69494;43.654;3.884;2023-05-07T12:57:19;101314.69;;;28.47;29.06
79457;BME280;69494;43.654;3.884;2023-05-07T12:59:45;101298.13;;;29.53;29.20
79457;BME280;69494;43.654;3.884;2023-05-07T13:02:11;101311.44;;;28.77;28.31